x

Virginia Beach 64 Nm East Of Virginia Beach, Va (44014) Wave Buoy

5:50pm - Mon 20th Nov 2017 All times are EST. -5 hours from GMT.

  • Sig Wave height 3.3ft
  • Swell Direction
  • Peak Period 6s
  • Average Period 5s
  • Wind
    9mph, 13mph gusts
  • Sea Temp 60°f
  • Air Temp 51°f
  • Sea Pressure 1024.3mb
  • Virginia Beach 64 Nm East Of Virginia Beach, Va
  • Virginia Beach 64 Nm East Of Virginia Beach, Va

More Historic Weather Station data

Upgrade to MSW Pro to gain access to the past 30 days of data for over 8000 Wavebouys and Weather Stations around the globe.

Join

Comparision Forecast

View Surf forecast
   
Mon 11/20 5:50pm 3.5ft 6s 5s 9 13 mph 1024.3mb 60f 51f
4:50pm 4ft 6s 5s 11 13 mph 1024.2mb 60f 50f
3:50pm 4.5ft 7s 5s 13 18 mph 1024.2mb 60f 50f
2:50pm 4.5ft 7s 5s 13 18 mph 1023.7mb 60f 50f
1:50pm 4.5ft 7s 5s 13 20 mph 1023.4mb 60f 50f
12:50pm 4.5ft 6s 5s 13 18 mph 1023.4mb 60f 50f
11:50am 4.5ft 6s 5s 13 18 mph 1023.5mb 60f 49f
10:50am 5ft 6s 5s 11 16 mph 1023.7mb 60f 50f
9:50am 5.5ft 6s 5s 16 20 mph 1023.4mb 60f 50f
8:50am 5.5ft 7s 5s 18 22 mph 1022.4mb 60f 50f
7:50am 5.5ft 7s 5s 18 22 mph 1021.4mb 60f 50f
6:50am 6ft 7s 5s 20 25 mph 1020.1mb 60f 51f
5:50am 6.5ft 8s 5s 16 22 mph 1019.1mb 60f 51f
4:50am 7ft 7s 5s 20 27 mph 1018.4mb 60f 51f
3:50am 7ft 8s 6s 22 27 mph 1017.6mb 60f 51f
2:50am 7ft 8s 6s 20 25 mph 1017.2mb 60f 51f
1:50am 8ft 8s 6s 20 25 mph 1016.3mb 60f 51f
12:50am 8ft 8s 6s 22 29 mph 1015.6mb 61f 52f
Sun 11/19 11:50pm 7.5ft 7s 6s 22 29 mph 1015mb 61f 52f
10:50pm 7.5ft 7s 5s 22 29 mph 1014.3mb 61f 52f
9:50pm 7ft 7s 5s 25 31 mph 1013.6mb 61f 53f
8:50pm 7ft 6s 5s 25 31 mph 1012.3mb 61f 53f
7:50pm 6.5ft 7s 5s 22 27 mph 1011.1mb 61f 55f
6:50pm 6.5ft 7s 6s 20 22 mph 1010.2mb 61f 56f
5:50pm 7ft 7s 5s 20 25 mph 1009mb 61f 56f
4:50pm 8ft 7s 6s 22 27 mph 1007.7mb 61f 57f
3:50pm 8ft 7s 6s 20 25 mph 1006.7mb 61f 56f
2:50pm 9ft 7s 6s 25 29 mph 1005.5mb 62f 57f
1:50pm 8ft 6s 5s 25 29 mph 1004.9mb 62f 57f
12:50pm 7.5ft 5s 5s 25 29 mph 1004.6mb 62f 57f
11:50am 7ft 9s 5s 29 34 mph 1004.2mb 62f 57f
10:50am 7ft 9s 5s 29 36 mph 1003.6mb 62f 60f
9:50am 7ft 8s 5s 27 34 mph 1002.9mb 62f 62f
8:50am 8ft 8s 5s 25 29 mph 1001.8mb 62f 63f
7:50am 7.5ft 6s 5s 29 34 mph 1000.5mb 62f 63f
6:50am 8ft 6s 5s 31 38 mph 999mb 62f 65f
5:50am 7.5ft 7s 5s 31 38 mph 999.1mb 62f 65f
4:50am 7ft 5s 5s 31 38 mph 999.8mb 62f 65f
3:50am 8ft 7s 5s 29 36 mph 1000.6mb 61f 65f
2:50am 6ft 6s 5s 34 40 mph 1001.4mb 61f 65f
1:50am 6.5ft 5s 5s 27 31 mph 1003mb 61f 65f
12:50am 6ft 6s 5s 25 29 mph 1004.2mb 61f 65f
Sat 11/18 11:50pm 5.5ft 6s 5s 22 27 mph 1005.5mb 62f 65f
10:50pm 5.5ft 6s 5s 25 31 mph 1005.9mb 62f 65f
9:50pm 5ft 5s 4s 27 31 mph 1006.4mb 62f 65f
8:50pm 5ft 5s 4s 27 31 mph 1007.2mb 62f 65f
7:50pm 5ft 6s 4s 22 27 mph 1008mb 62f 64f
6:50pm 5ft 5s 4s 22 27 mph 1008.6mb 62f 64f
5:50pm 5ft 5s 4s 25 29 mph 1008.8mb 61f 64f
4:50pm 5ft 5s 4s 25 29 mph 1009.4mb 62f 63f
3:50pm 4.5ft 5s 4s 22 27 mph 1009.9mb 62f 63f
2:50pm 4.5ft 5s 4s 22 27 mph 1010.5mb 61f 62f
1:50pm 4ft 4s 4s 25 29 mph 1011.3mb 61f 61f
12:50pm 3.5ft 4s 4s 22 27 mph 1013.3mb 61f 60f
11:50am 3.5ft 4s 4s 20 25 mph 1014.6mb 61f 59f
10:50am 3.5ft 4s 4s 20 22 mph 1016.4mb 61f 58f
9:50am 3ft 4s 4s 18 22 mph 1017.3mb 61f 57f
8:50am 3ft 4s 4s 18 25 mph 1017mb 60f 56f
7:50am 3ft 11s 4s 18 20 mph 1018mb 60f 55f
6:50am 3ft 11s 4s 18 22 mph 1018.6mb 60f 55f
5:50am 3ft 12s 5s 16 20 mph 1018.7mb 60f 55f
4:50am 3ft 11s 6s 13 16 mph 1018.6mb 60f 54f
3:50am 3ft 11s 6s 11 13 mph 1019.2mb 60f 53f
2:50am 3ft 12s 6s 4 7 mph 1019.6mb 60f 53f
1:50am 3.5ft 12s 5s 4 9 mph 1020.2mb 60f 53f
12:50am 3.5ft 11s 5s  -  2 mph 1020.6mb 60f 53f
Fri 11/17 11:50pm 3.5ft 12s 5s 2 4 mph 1021.3mb 60f 53f
10:50pm 3.5ft 7s 5s 7 11 mph 1021.3mb 60f 53f
9:50pm 4ft 12s 5s 9 13 mph 1021mb 60f 53f
7:50pm 4.5ft 7s 5s 16 18 mph 1020.9mb 61f 52f
6:50pm 4.5ft 7s 5s 16 20 mph 1021.4mb 61f 52f
5:50pm 4.5ft 11s 5s 18 25 mph 1021.2mb 61f 52f
4:50pm 4.5ft 7s 5s 20 25 mph 1020.8mb 61f 52f
3:50pm 5ft 7s 5s 16 20 mph 1020.4mb 61f 52f
2:50pm 5ft 13s 5s 16 20 mph 1020.3mb 61f 51f
1:50pm 5ft 7s 5s 18 22 mph 1020.8mb 61f 51f
12:50pm 6ft 7s 5s 18 22 mph 1020.9mb 61f 51f
11:50am 6ft 8s 5s 18 22 mph 1020.9mb 61f 50f
10:50am 7ft 7s 5s 20 25 mph 1021.5mb 61f 50f
9:50am 7.5ft 7s 6s 20 27 mph 1021.6mb 61f 50f
8:50am 8ft 6s 6s 22 29 mph 1021.5mb 61f 51f
7:50am 8ft 7s 6s 22 29 mph 1020.9mb 61f 51f
6:50am 8ft 7s 6s 22 29 mph 1020.4mb 61f 51f
5:50am 8ft 7s 6s 22 27 mph 1019.5mb 61f 51f
4:50am 9ft 7s 6s 25 29 mph 1018.8mb 61f 51f
3:50am 8.5ft 7s 6s 27 31 mph 1018mb 61f 51f
2:50am 8ft 6s 5s 27 34 mph 1018mb 61f 52f
1:50am 7ft 11s 5s 27 34 mph 1017.3mb 61f 53f
12:50am 6ft 5s 5s 27 34 mph 1016.8mb 61f 54f